Aérodrome :
LOGIN :

S'inscrire | Disclaimer

   EN    FR    IT 

 










Légende :    VFR   VFR Marginal   IFR   IFR Intensif   IFR Très Intensif
Visi : 
Plafond : 
>= 8 km
>= 3000ft
5 à 8 km
1000 à 3000 ft
1500m à 5 km
500 à 1000 ft
800 à 1500m
200 à 500 ft
< 800m
< 200 ft
Symboles :   Orages  Brouillard  Fortes neiges  Fortes précipitations  Vent > 20 kt
SIGMETs :   Divers  Orages  Givrage  Turbulence  Onde Orograph.  Cendres Volcan.






- Altitude de l'aérodrome : 308 ft
- Code IATA : MHG


EDFM - Mannheim-City

DERNIER METAR :
  • 211550Z 22005KT 180V250 9999 FEW007 BKN030 16/15 Q1006

METARs EXPIRÉS :
  • 211520Z 22006KT 180V250 9000 -RADZ SCT007 OVC019 16/15 Q1006
  • 211450Z 21008KT 180V240 9999 -RADZ FEW006 SCT008 OVC018 16/14 Q1006
  • 211420Z 19006KT 150V220 8000 -RADZ SCT006 OVC031 16/15 Q1006
  • 211350Z 23004KT 190V260 9999 -DZ SCT014 BKN031 OVC037 17/15 Q1006
  • 211320Z 24004KT 210V270 9999 -RADZ FEW007 BKN030 17/15 Q1006
  • 211250Z VRB02KT 9999 -RADZ SCT007 BKN021 17/16 Q1007
  • 211220Z VRB01KT 9999 -RA BKN010 OVC018 17/15 Q1007
  • 211150Z VRB02KT 9999 -RA SCT008 BKN015 17/15 Q1007
  • 211120Z 20004KT 170V240 9999 -RA SCT006 BKN016 17/15 Q1007

TAF TAF EDFM
Valide du 21 à 15h jusqu'au 21 à 21h UTC


211400Z 2115/2121 20006KT 9999 BKN030
PROB30
TEMPO 2115/2117 4000 RADZ BKN012



MET'MAP, la Météo Aéronautique d'un coup d'oeil ! - Copyright ORBIFLY Décembre 2007 - Disclaimer

ORBIFLY MET'MAP TEAM :

Programmation & Développement : Alexandra Zaïnal
Sur une idée originale de : Baudouin d'Aumeries
Soutien technique & logistique : Manuel Goepfert
Assistance : Marc-Olivier Méhu




SOURCES & CREDITS :

   NOAA